sensor_id;sensor_type;location;lat;lon;timestamp;P1;durP1;ratioP1;P2;durP2;ratioP2
8397;SDS011;4236;54.504;9.588;2023-08-01T00:01:59;23.47;;;22.10;;
8397;SDS011;4236;54.504;9.588;2023-08-01T00:04:27;24.80;;;23.50;;
8397;SDS011;4236;54.504;9.588;2023-08-01T00:06:55;23.67;;;22.57;;
8397;SDS011;4236;54.504;9.588;2023-08-01T00:09:22;24.30;;;23.00;;
8397;SDS011;4236;54.504;9.588;2023-08-01T00:11:50;23.73;;;22.73;;
8397;SDS011;4236;54.504;9.588;2023-08-01T00:14:18;24.83;;;23.43;;
8397;SDS011;4236;54.504;9.588;2023-08-01T00:16:46;23.90;;;22.70;;
8397;SDS011;4236;54.504;9.588;2023-08-01T00:19:16;25.20;;;24.00;;
8397;SDS011;4236;54.504;9.588;2023-08-01T00:21:43;23.77;;;22.60;;
8397;SDS011;4236;54.504;9.588;2023-08-01T00:24:11;24.33;;;23.27;;
8397;SDS011;4236;54.504;9.588;2023-08-01T00:26:39;25.60;;;24.50;;
8397;SDS011;4236;54.504;9.588;2023-08-01T00:29:07;24.03;;;23.13;;
8397;SDS011;4236;54.504;9.588;2023-08-01T00:31:34;24.40;;;23.30;;
8397;SDS011;4236;54.504;9.588;2023-08-01T00:34:02;25.47;;;24.00;;
8397;SDS011;4236;54.504;9.588;2023-08-01T00:36:31;23.70;;;22.70;;
8397;SDS011;4236;54.504;9.588;2023-08-01T00:38:58;24.80;;;23.27;;
8397;SDS011;4236;54.504;9.588;2023-08-01T00:41:26;25.27;;;24.07;;
8397;SDS011;4236;54.504;9.588;2023-08-01T00:43:53;25.60;;;24.00;;
8397;SDS011;4236;54.504;9.588;2023-08-01T00:46:21;25.30;;;23.80;;
8397;SDS011;4236;54.504;9.588;2023-08-01T00:48:49;25.30;;;23.87;;
8397;SDS011;4236;54.504;9.588;2023-08-01T00:51:16;25.90;;;24.40;;
8397;SDS011;4236;54.504;9.588;2023-08-01T00:53:45;26.47;;;25.07;;
8397;SDS011;4236;54.504;9.588;2023-08-01T00:56:13;24.83;;;23.63;;
8397;SDS011;4236;54.504;9.588;2023-08-01T00:58:41;25.57;;;24.30;;
8397;SDS011;4236;54.504;9.588;2023-08-01T01:01:08;26.50;;;24.90;;
8397;SDS011;4236;54.504;9.588;2023-08-01T01:03:36;27.03;;;25.53;;
8397;SDS011;4236;54.504;9.588;2023-08-01T01:06:06;25.90;;;24.60;;
8397;SDS011;4236;54.504;9.588;2023-08-01T01:08:36;27.20;;;25.60;;
8397;SDS011;4236;54.504;9.588;2023-08-01T01:11:04;27.10;;;25.50;;
8397;SDS011;4236;54.504;9.588;2023-08-01T01:13:32;27.30;;;25.87;;
8397;SDS011;4236;54.504;9.588;2023-08-01T01:16:00;27.23;;;25.63;;
8397;SDS011;4236;54.504;9.588;2023-08-01T01:18:27;28.33;;;26.83;;
8397;SDS011;4236;54.504;9.588;2023-08-01T01:20:56;28.57;;;26.87;;
8397;SDS011;4236;54.504;9.588;2023-08-01T01:23:24;28.73;;;27.33;;
8397;SDS011;4236;54.504;9.588;2023-08-01T01:25:53;27.17;;;25.70;;
8397;SDS011;4236;54.504;9.588;2023-08-01T01:28:21;27.87;;;26.47;;
8397;SDS011;4236;54.504;9.588;2023-08-01T01:30:50;29.37;;;27.70;;
8397;SDS011;4236;54.504;9.588;2023-08-01T01:33:20;29.50;;;28.00;;
8397;SDS011;4236;54.504;9.588;2023-08-01T01:35:48;31.97;;;29.97;;
8397;SDS011;4236;54.504;9.588;2023-08-01T01:38:17;32.17;;;29.73;;
8397;SDS011;4236;54.504;9.588;2023-08-01T01:40:44;31.70;;;29.60;;
8397;SDS011;4236;54.504;9.588;2023-08-01T01:43:12;31.30;;;29.23;;
8397;SDS011;4236;54.504;9.588;2023-08-01T01:45:39;30.17;;;28.27;;
8397;SDS011;4236;54.504;9.588;2023-08-01T01:48:07;31.37;;;29.27;;
8397;SDS011;4236;54.504;9.588;2023-08-01T01:50:34;29.93;;;28.00;;
8397;SDS011;4236;54.504;9.588;2023-08-01T01:53:02;28.80;;;27.07;;
8397;SDS011;4236;54.504;9.588;2023-08-01T01:55:31;30.40;;;28.70;;
8397;SDS011;4236;54.504;9.588;2023-08-01T01:57:58;26.93;;;25.53;;
8397;SDS011;4236;54.504;9.588;2023-08-01T02:00:26;24.93;;;23.93;;
8397;SDS011;4236;54.504;9.588;2023-08-01T02:02:54;26.20;;;24.83;;
8397;SDS011;4236;54.504;9.588;2023-08-01T02:05:22;26.17;;;25.00;;
8397;SDS011;4236;54.504;9.588;2023-08-01T02:07:49;24.03;;;23.03;;
8397;SDS011;4236;54.504;9.588;2023-08-01T02:10:17;26.70;;;25.40;;
8397;SDS011;4236;54.504;9.588;2023-08-01T02:12:46;27.50;;;26.37;;
8397;SDS011;4236;54.504;9.588;2023-08-01T02:15:14;26.80;;;25.67;;
8397;SDS011;4236;54.504;9.588;2023-08-01T02:17:41;25.27;;;24.17;;
8397;SDS011;4236;54.504;9.588;2023-08-01T02:20:09;27.63;;;26.33;;
8397;SDS011;4236;54.504;9.588;2023-08-01T02:22:37;24.63;;;23.60;;
8397;SDS011;4236;54.504;9.588;2023-08-01T02:25:05;25.43;;;24.30;;
8397;SDS011;4236;54.504;9.588;2023-08-01T02:27:32;26.47;;;25.20;;
8397;SDS011;4236;54.504;9.588;2023-08-01T02:30:01;27.33;;;26.10;;
8397;SDS011;4236;54.504;9.588;2023-08-01T02:32:29;25.83;;;24.63;;
8397;SDS011;4236;54.504;9.588;2023-08-01T02:34:57;26.90;;;25.60;;
8397;SDS011;4236;54.504;9.588;2023-08-01T02:37:24;26.77;;;25.53;;
8397;SDS011;4236;54.504;9.588;2023-08-01T02:39:52;28.87;;;27.23;;
8397;SDS011;4236;54.504;9.588;2023-08-01T02:42:19;28.30;;;26.90;;
8397;SDS011;4236;54.504;9.588;2023-08-01T02:44:47;29.00;;;27.47;;
8397;SDS011;4236;54.504;9.588;2023-08-01T02:47:16;29.50;;;28.00;;
8397;SDS011;4236;54.504;9.588;2023-08-01T02:49:45;27.77;;;26.43;;
8397;SDS011;4236;54.504;9.588;2023-08-01T02:52:13;27.47;;;26.17;;
8397;SDS011;4236;54.504;9.588;2023-08-01T02:54:40;27.77;;;26.57;;
8397;SDS011;4236;54.504;9.588;2023-08-01T02:57:08;26.87;;;25.60;;
8397;SDS011;4236;54.504;9.588;2023-08-01T02:59:35;26.10;;;24.90;;
8397;SDS011;4236;54.504;9.588;2023-08-01T03:02:04;26.60;;;25.30;;
8397;SDS011;4236;54.504;9.588;2023-08-01T03:04:33;28.33;;;26.93;;
8397;SDS011;4236;54.504;9.588;2023-08-01T03:07:12;27.27;;;25.90;;
8397;SDS011;4236;54.504;9.588;2023-08-01T03:09:39;28.57;;;27.20;;
8397;SDS011;4236;54.504;9.588;2023-08-01T03:12:09;29.80;;;28.20;;
8397;SDS011;4236;54.504;9.588;2023-08-01T03:14:36;31.30;;;29.30;;
8397;SDS011;4236;54.504;9.588;2023-08-01T03:17:05;28.50;;;26.77;;
8397;SDS011;4236;54.504;9.588;2023-08-01T03:19:35;29.53;;;28.00;;
8397;SDS011;4236;54.504;9.588;2023-08-01T03:22:03;28.03;;;26.83;;
8397;SDS011;4236;54.504;9.588;2023-08-01T03:24:31;32.70;;;30.43;;
8397;SDS011;4236;54.504;9.588;2023-08-01T03:26:59;30.10;;;28.60;;
8397;SDS011;4236;54.504;9.588;2023-08-01T03:29:27;29.07;;;27.57;;
8397;SDS011;4236;54.504;9.588;2023-08-01T03:31:54;28.17;;;26.97;;
8397;SDS011;4236;54.504;9.588;2023-08-01T03:34:22;28.50;;;27.07;;
8397;SDS011;4236;54.504;9.588;2023-08-01T03:36:51;30.97;;;29.17;;
8397;SDS011;4236;54.504;9.588;2023-08-01T03:39:19;30.53;;;28.60;;
8397;SDS011;4236;54.504;9.588;2023-08-01T03:41:46;28.53;;;27.20;;
8397;SDS011;4236;54.504;9.588;2023-08-01T03:44:14;28.60;;;27.10;;
8397;SDS011;4236;54.504;9.588;2023-08-01T03:46:43;27.93;;;26.43;;
8397;SDS011;4236;54.504;9.588;2023-08-01T03:49:11;27.10;;;25.90;;
8397;SDS011;4236;54.504;9.588;2023-08-01T03:51:39;27.33;;;26.00;;
8397;SDS011;4236;54.504;9.588;2023-08-01T03:54:07;27.83;;;26.50;;
8397;SDS011;4236;54.504;9.588;2023-08-01T03:56:39;26.93;;;25.73;;
8397;SDS011;4236;54.504;9.588;2023-08-01T03:59:10;26.70;;;25.40;;
8397;SDS011;4236;54.504;9.588;2023-08-01T04:01:38;26.87;;;25.47;;
8397;SDS011;4236;54.504;9.588;2023-08-01T04:04:06;25.40;;;24.30;;
8397;SDS011;4236;54.504;9.588;2023-08-01T04:06:33;23.90;;;22.90;;
8397;SDS011;4236;54.504;9.588;2023-08-01T04:09:01;26.77;;;25.40;;
8397;SDS011;4236;54.504;9.588;2023-08-01T04:11:29;25.87;;;24.57;;
8397;SDS011;4236;54.504;9.588;2023-08-01T04:13:56;24.70;;;23.50;;
8397;SDS011;4236;54.504;9.588;2023-08-01T04:16:24;24.80;;;23.80;;
8397;SDS011;4236;54.504;9.588;2023-08-01T04:18:52;25.27;;;24.23;;
8397;SDS011;4236;54.504;9.588;2023-08-01T04:21:19;25.77;;;24.37;;
8397;SDS011;4236;54.504;9.588;2023-08-01T04:23:47;25.30;;;24.00;;
8397;SDS011;4236;54.504;9.588;2023-08-01T04:26:14;25.10;;;24.10;;
8397;SDS011;4236;54.504;9.588;2023-08-01T04:28:45;25.30;;;24.03;;
8397;SDS011;4236;54.504;9.588;2023-08-01T04:31:12;22.53;;;21.40;;
8397;SDS011;4236;54.504;9.588;2023-08-01T04:33:40;22.90;;;22.00;;
8397;SDS011;4236;54.504;9.588;2023-08-01T04:36:08;23.47;;;22.47;;
8397;SDS011;4236;54.504;9.588;2023-08-01T04:38:35;24.17;;;23.17;;
8397;SDS011;4236;54.504;9.588;2023-08-01T04:41:03;22.23;;;21.33;;
8397;SDS011;4236;54.504;9.588;2023-08-01T04:43:31;22.70;;;21.70;;
8397;SDS011;4236;54.504;9.588;2023-08-01T04:45:59;22.43;;;21.40;;
8397;SDS011;4236;54.504;9.588;2023-08-01T04:48:27;22.47;;;21.47;;
8397;SDS011;4236;54.504;9.588;2023-08-01T04:50:54;22.80;;;21.80;;
8397;SDS011;4236;54.504;9.588;2023-08-01T04:53:22;22.03;;;21.13;;
8397;SDS011;4236;54.504;9.588;2023-08-01T04:55:50;22.00;;;20.80;;
8397;SDS011;4236;54.504;9.588;2023-08-01T04:58:17;21.80;;;20.60;;
8397;SDS011;4236;54.504;9.588;2023-08-01T05:00:45;22.20;;;21.00;;
8397;SDS011;4236;54.504;9.588;2023-08-01T05:03:14;21.00;;;20.00;;
8397;SDS011;4236;54.504;9.588;2023-08-01T05:05:41;21.70;;;20.40;;
8397;SDS011;4236;54.504;9.588;2023-08-01T05:08:09;21.23;;;20.13;;
8397;SDS011;4236;54.504;9.588;2023-08-01T05:10:36;21.27;;;20.27;;
8397;SDS011;4236;54.504;9.588;2023-08-01T05:13:04;21.30;;;20.40;;
8397;SDS011;4236;54.504;9.588;2023-08-01T05:15:31;21.03;;;20.13;;
8397;SDS011;4236;54.504;9.588;2023-08-01T05:17:59;20.70;;;19.90;;
8397;SDS011;4236;54.504;9.588;2023-08-01T05:20:28;20.73;;;19.83;;
8397;SDS011;4236;54.504;9.588;2023-08-01T05:22:57;21.77;;;20.77;;
8397;SDS011;4236;54.504;9.588;2023-08-01T05:25:25;22.93;;;21.93;;
8397;SDS011;4236;54.504;9.588;2023-08-01T05:27:52;23.83;;;22.43;;
8397;SDS011;4236;54.504;9.588;2023-08-01T05:30:20;23.80;;;22.60;;
8397;SDS011;4236;54.504;9.588;2023-08-01T05:32:47;24.50;;;23.30;;
8397;SDS011;4236;54.504;9.588;2023-08-01T05:35:15;23.63;;;22.53;;
8397;SDS011;4236;54.504;9.588;2023-08-01T05:37:45;23.40;;;22.33;;
8397;SDS011;4236;54.504;9.588;2023-08-01T05:40:12;23.60;;;22.60;;
8397;SDS011;4236;54.504;9.588;2023-08-01T05:42:40;22.67;;;21.67;;
8397;SDS011;4236;54.504;9.588;2023-08-01T05:45:08;23.13;;;22.13;;
8397;SDS011;4236;54.504;9.588;2023-08-01T05:47:37;21.80;;;20.80;;
8397;SDS011;4236;54.504;9.588;2023-08-01T05:50:06;22.53;;;21.60;;
8397;SDS011;4236;54.504;9.588;2023-08-01T05:52:34;23.40;;;22.30;;
8397;SDS011;4236;54.504;9.588;2023-08-01T05:55:04;23.10;;;22.10;;
8397;SDS011;4236;54.504;9.588;2023-08-01T05:57:31;22.20;;;20.90;;
8397;SDS011;4236;54.504;9.588;2023-08-01T05:59:59;21.30;;;20.40;;
8397;SDS011;4236;54.504;9.588;2023-08-01T06:02:26;22.17;;;21.07;;
8397;SDS011;4236;54.504;9.588;2023-08-01T06:04:54;21.50;;;20.60;;
8397;SDS011;4236;54.504;9.588;2023-08-01T06:07:22;21.40;;;20.50;;
8397;SDS011;4236;54.504;9.588;2023-08-01T06:09:50;20.70;;;19.80;;
8397;SDS011;4236;54.504;9.588;2023-08-01T06:12:19;19.70;;;18.90;;
8397;SDS011;4236;54.504;9.588;2023-08-01T06:14:47;19.60;;;18.70;;
8397;SDS011;4236;54.504;9.588;2023-08-01T06:17:14;19.10;;;18.30;;
8397;SDS011;4236;54.504;9.588;2023-08-01T06:19:42;19.23;;;18.53;;
8397;SDS011;4236;54.504;9.588;2023-08-01T06:22:10;19.83;;;19.03;;
8397;SDS011;4236;54.504;9.588;2023-08-01T06:24:37;20.10;;;19.20;;
8397;SDS011;4236;54.504;9.588;2023-08-01T06:27:05;19.57;;;18.77;;
8397;SDS011;4236;54.504;9.588;2023-08-01T06:29:34;18.80;;;18.10;;
8397;SDS011;4236;54.504;9.588;2023-08-01T06:32:03;19.47;;;18.63;;
8397;SDS011;4236;54.504;9.588;2023-08-01T06:34:31;19.07;;;18.37;;
8397;SDS011;4236;54.504;9.588;2023-08-01T06:36:58;18.13;;;17.43;;
8397;SDS011;4236;54.504;9.588;2023-08-01T06:39:26;19.13;;;18.43;;
8397;SDS011;4236;54.504;9.588;2023-08-01T06:41:54;18.77;;;17.97;;
8397;SDS011;4236;54.504;9.588;2023-08-01T06:44:21;19.47;;;18.77;;
8397;SDS011;4236;54.504;9.588;2023-08-01T06:46:51;19.70;;;18.80;;
8397;SDS011;4236;54.504;9.588;2023-08-01T06:49:18;19.10;;;18.40;;
8397;SDS011;4236;54.504;9.588;2023-08-01T06:51:46;18.50;;;17.80;;
8397;SDS011;4236;54.504;9.588;2023-08-01T06:54:14;18.90;;;18.20;;
8397;SDS011;4236;54.504;9.588;2023-08-01T06:56:41;18.13;;;17.30;;
8397;SDS011;4236;54.504;9.588;2023-08-01T06:59:13;16.53;;;15.97;;
8397;SDS011;4236;54.504;9.588;2023-08-01T07:01:41;19.07;;;18.37;;
8397;SDS011;4236;54.504;9.588;2023-08-01T07:04:11;22.03;;;21.13;;
8397;SDS011;4236;54.504;9.588;2023-08-01T07:06:38;20.40;;;19.60;;
8397;SDS011;4236;54.504;9.588;2023-08-01T07:09:07;22.40;;;21.40;;
8397;SDS011;4236;54.504;9.588;2023-08-01T07:11:35;20.40;;;19.70;;
8397;SDS011;4236;54.504;9.588;2023-08-01T07:14:02;20.80;;;20.10;;
8397;SDS011;4236;54.504;9.588;2023-08-01T07:16:30;22.10;;;20.90;;
8397;SDS011;4236;54.504;9.588;2023-08-01T07:18:59;23.13;;;22.23;;
8397;SDS011;4236;54.504;9.588;2023-08-01T07:21:28;22.03;;;21.00;;
8397;SDS011;4236;54.504;9.588;2023-08-01T07:23:56;20.80;;;20.10;;
8397;SDS011;4236;54.504;9.588;2023-08-01T07:26:24;20.93;;;20.23;;
8397;SDS011;4236;54.504;9.588;2023-08-01T07:28:52;22.67;;;21.67;;
8397;SDS011;4236;54.504;9.588;2023-08-01T07:31:19;22.40;;;21.60;;
8397;SDS011;4236;54.504;9.588;2023-08-01T07:33:47;21.13;;;20.33;;
8397;SDS011;4236;54.504;9.588;2023-08-01T07:36:14;21.43;;;20.70;;
8397;SDS011;4236;54.504;9.588;2023-08-01T07:38:43;19.80;;;19.20;;
8397;SDS011;4236;54.504;9.588;2023-08-01T07:41:11;21.80;;;20.80;;
8397;SDS011;4236;54.504;9.588;2023-08-01T07:43:38;20.63;;;19.63;;
8397;SDS011;4236;54.504;9.588;2023-08-01T07:46:06;21.57;;;20.57;;
8397;SDS011;4236;54.504;9.588;2023-08-01T07:48:35;20.70;;;19.80;;
8397;SDS011;4236;54.504;9.588;2023-08-01T07:51:02;21.03;;;20.23;;
8397;SDS011;4236;54.504;9.588;2023-08-01T07:53:31;20.90;;;20.20;;
8397;SDS011;4236;54.504;9.588;2023-08-01T07:56:00;19.43;;;18.83;;
8397;SDS011;4236;54.504;9.588;2023-08-01T07:58:28;19.47;;;18.63;;
8397;SDS011;4236;54.504;9.588;2023-08-01T08:00:56;21.33;;;20.40;;
8397;SDS011;4236;54.504;9.588;2023-08-01T08:03:24;18.73;;;17.93;;
8397;SDS011;4236;54.504;9.588;2023-08-01T08:05:51;19.30;;;18.60;;
8397;SDS011;4236;54.504;9.588;2023-08-01T08:08:19;19.63;;;18.73;;
8397;SDS011;4236;54.504;9.588;2023-08-01T08:10:46;19.73;;;19.00;;
8397;SDS011;4236;54.504;9.588;2023-08-01T08:13:15;18.57;;;17.77;;
8397;SDS011;4236;54.504;9.588;2023-08-01T08:15:43;18.13;;;17.50;;
8397;SDS011;4236;54.504;9.588;2023-08-01T08:18:10;17.40;;;16.70;;
8397;SDS011;4236;54.504;9.588;2023-08-01T08:20:40;17.30;;;16.50;;
8397;SDS011;4236;54.504;9.588;2023-08-01T08:23:08;18.00;;;17.30;;
8397;SDS011;4236;54.504;9.588;2023-08-01T08:25:37;17.87;;;17.07;;
8397;SDS011;4236;54.504;9.588;2023-08-01T08:28:04;17.23;;;16.63;;
8397;SDS011;4236;54.504;9.588;2023-08-01T08:30:33;17.57;;;16.67;;
8397;SDS011;4236;54.504;9.588;2023-08-01T08:33:00;17.67;;;17.07;;
8397;SDS011;4236;54.504;9.588;2023-08-01T08:35:30;17.40;;;16.30;;
8397;SDS011;4236;54.504;9.588;2023-08-01T08:37:58;17.13;;;16.50;;
8397;SDS011;4236;54.504;9.588;2023-08-01T08:40:25;18.27;;;17.27;;
8397;SDS011;4236;54.504;9.588;2023-08-01T08:42:53;16.63;;;16.00;;
8397;SDS011;4236;54.504;9.588;2023-08-01T08:45:21;17.90;;;17.13;;
8397;SDS011;4236;54.504;9.588;2023-08-01T08:47:52;18.53;;;17.83;;
8397;SDS011;4236;54.504;9.588;2023-08-01T08:50:22;17.70;;;17.00;;
8397;SDS011;4236;54.504;9.588;2023-08-01T08:52:50;18.03;;;17.23;;
8397;SDS011;4236;54.504;9.588;2023-08-01T08:55:18;17.63;;;16.93;;
8397;SDS011;4236;54.504;9.588;2023-08-01T08:57:49;17.83;;;16.83;;
8397;SDS011;4236;54.504;9.588;2023-08-01T09:00:17;18.87;;;18.07;;
8397;SDS011;4236;54.504;9.588;2023-08-01T09:02:47;17.30;;;16.67;;
8397;SDS011;4236;54.504;9.588;2023-08-01T09:05:16;18.17;;;17.47;;
8397;SDS011;4236;54.504;9.588;2023-08-01T09:07:45;19.90;;;18.37;;
8397;SDS011;4236;54.504;9.588;2023-08-01T09:10:14;19.10;;;18.37;;
8397;SDS011;4236;54.504;9.588;2023-08-01T09:12:41;20.97;;;19.70;;
8397;SDS011;4236;54.504;9.588;2023-08-01T09:15:09;19.67;;;18.60;;
8397;SDS011;4236;54.504;9.588;2023-08-01T09:17:46;19.40;;;18.60;;
8397;SDS011;4236;54.504;9.588;2023-08-01T09:20:15;20.40;;;19.40;;
8397;SDS011;4236;54.504;9.588;2023-08-01T09:22:43;19.17;;;18.37;;
8397;SDS011;4236;54.504;9.588;2023-08-01T09:25:11;19.27;;;18.20;;
8397;SDS011;4236;54.504;9.588;2023-08-01T09:27:39;17.90;;;17.20;;
8397;SDS011;4236;54.504;9.588;2023-08-01T09:30:07;18.30;;;17.50;;
8397;SDS011;4236;54.504;9.588;2023-08-01T09:32:35;17.23;;;16.40;;
8397;SDS011;4236;54.504;9.588;2023-08-01T09:35:03;17.07;;;16.47;;
8397;SDS011;4236;54.504;9.588;2023-08-01T09:37:41;17.93;;;17.23;;
8397;SDS011;4236;54.504;9.588;2023-08-01T09:40:09;19.07;;;18.10;;
8397;SDS011;4236;54.504;9.588;2023-08-01T09:42:37;21.10;;;19.63;;
8397;SDS011;4236;54.504;9.588;2023-08-01T09:45:06;20.27;;;18.60;;
8397;SDS011;4236;54.504;9.588;2023-08-01T09:47:35;19.07;;;18.27;;
8397;SDS011;4236;54.504;9.588;2023-08-01T09:50:03;20.63;;;19.73;;
8397;SDS011;4236;54.504;9.588;2023-08-01T09:52:31;17.80;;;17.00;;
8397;SDS011;4236;54.504;9.588;2023-08-01T09:55:00;18.00;;;17.40;;
8397;SDS011;4236;54.504;9.588;2023-08-01T09:57:28;18.23;;;17.63;;
8397;SDS011;4236;54.504;9.588;2023-08-01T09:59:56;19.97;;;19.27;;
8397;SDS011;4236;54.504;9.588;2023-08-01T10:02:25;19.10;;;18.30;;
8397;SDS011;4236;54.504;9.588;2023-08-01T10:04:53;19.20;;;18.40;;
8397;SDS011;4236;54.504;9.588;2023-08-01T10:07:23;18.03;;;17.43;;
8397;SDS011;4236;54.504;9.588;2023-08-01T10:09:51;16.30;;;15.80;;
8397;SDS011;4236;54.504;9.588;2023-08-01T10:12:22;17.10;;;16.50;;
8397;SDS011;4236;54.504;9.588;2023-08-01T10:14:50;17.43;;;16.73;;
8397;SDS011;4236;54.504;9.588;2023-08-01T10:17:19;17.17;;;16.63;;
8397;SDS011;4236;54.504;9.588;2023-08-01T10:19:48;16.00;;;15.40;;
8397;SDS011;4236;54.504;9.588;2023-08-01T10:22:16;16.10;;;15.50;;
8397;SDS011;4236;54.504;9.588;2023-08-01T10:24:44;15.70;;;15.00;;
8397;SDS011;4236;54.504;9.588;2023-08-01T10:27:13;17.23;;;16.53;;
8397;SDS011;4236;54.504;9.588;2023-08-01T10:29:42;17.33;;;16.43;;
8397;SDS011;4236;54.504;9.588;2023-08-01T10:32:10;15.70;;;14.80;;
8397;SDS011;4236;54.504;9.588;2023-08-01T10:34:38;14.00;;;13.50;;
8397;SDS011;4236;54.504;9.588;2023-08-01T10:37:05;13.40;;;12.90;;
8397;SDS011;4236;54.504;9.588;2023-08-01T10:39:33;13.33;;;12.63;;
8397;SDS011;4236;54.504;9.588;2023-08-01T10:42:01;12.37;;;11.70;;
8397;SDS011;4236;54.504;9.588;2023-08-01T10:44:29;15.13;;;13.80;;
8397;SDS011;4236;54.504;9.588;2023-08-01T10:47:00;16.60;;;15.47;;
8397;SDS011;4236;54.504;9.588;2023-08-01T10:49:34;14.87;;;13.83;;
8397;SDS011;4236;54.504;9.588;2023-08-01T10:52:03;13.97;;;13.30;;
8397;SDS011;4236;54.504;9.588;2023-08-01T10:54:32;15.57;;;14.33;;
8397;SDS011;4236;54.504;9.588;2023-08-01T10:57:04;13.83;;;13.13;;
8397;SDS011;4236;54.504;9.588;2023-08-01T10:59:33;13.37;;;12.73;;
8397;SDS011;4236;54.504;9.588;2023-08-01T11:02:03;15.37;;;14.57;;
8397;SDS011;4236;54.504;9.588;2023-08-01T11:04:30;16.13;;;15.23;;
8397;SDS011;4236;54.504;9.588;2023-08-01T11:06:58;18.67;;;17.07;;
8397;SDS011;4236;54.504;9.588;2023-08-01T11:09:27;14.40;;;13.63;;
8397;SDS011;4236;54.504;9.588;2023-08-01T11:11:56;15.60;;;14.90;;
8397;SDS011;4236;54.504;9.588;2023-08-01T11:14:25;14.17;;;13.37;;
8397;SDS011;4236;54.504;9.588;2023-08-01T11:16:53;15.43;;;14.73;;
8397;SDS011;4236;54.504;9.588;2023-08-01T11:19:23;16.47;;;15.77;;
8397;SDS011;4236;54.504;9.588;2023-08-01T11:21:50;15.43;;;14.63;;
8397;SDS011;4236;54.504;9.588;2023-08-01T11:24:19;12.83;;;12.23;;
8397;SDS011;4236;54.504;9.588;2023-08-01T11:26:47;13.67;;;12.80;;
8397;SDS011;4236;54.504;9.588;2023-08-01T11:29:15;13.43;;;12.63;;
8397;SDS011;4236;54.504;9.588;2023-08-01T11:31:51;15.70;;;14.50;;
8397;SDS011;4236;54.504;9.588;2023-08-01T11:34:20;14.90;;;13.67;;
8397;SDS011;4236;54.504;9.588;2023-08-01T11:36:49;12.80;;;12.30;;
8397;SDS011;4236;54.504;9.588;2023-08-01T11:39:16;13.03;;;12.33;;
8397;SDS011;4236;54.504;9.588;2023-08-01T11:41:44;11.90;;;11.30;;
8397;SDS011;4236;54.504;9.588;2023-08-01T11:44:12;13.40;;;12.17;;
8397;SDS011;4236;54.504;9.588;2023-08-01T11:46:39;11.23;;;10.60;;
8397;SDS011;4236;54.504;9.588;2023-08-01T11:49:08;9.87;;;9.47;;
8397;SDS011;4236;54.504;9.588;2023-08-01T11:51:39;9.17;;;8.80;;
8397;SDS011;4236;54.504;9.588;2023-08-01T11:54:08;9.13;;;8.73;;
8397;SDS011;4236;54.504;9.588;2023-08-01T11:56:38;8.93;;;8.43;;
8397;SDS011;4236;54.504;9.588;2023-08-01T11:59:09;10.20;;;9.70;;
8397;SDS011;4236;54.504;9.588;2023-08-01T12:01:37;9.53;;;8.93;;
8397;SDS011;4236;54.504;9.588;2023-08-01T12:04:05;10.40;;;9.57;;
8397;SDS011;4236;54.504;9.588;2023-08-01T12:06:33;9.73;;;9.23;;
8397;SDS011;4236;54.504;9.588;2023-08-01T12:09:05;10.60;;;10.00;;
8397;SDS011;4236;54.504;9.588;2023-08-01T12:11:35;11.07;;;10.30;;
8397;SDS011;4236;54.504;9.588;2023-08-01T12:14:03;9.30;;;8.90;;
8397;SDS011;4236;54.504;9.588;2023-08-01T12:16:31;12.03;;;10.90;;
8397;SDS011;4236;54.504;9.588;2023-08-01T12:18:59;9.53;;;9.13;;
8397;SDS011;4236;54.504;9.588;2023-08-01T12:21:27;10.90;;;10.10;;
8397;SDS011;4236;54.504;9.588;2023-08-01T12:23:54;11.27;;;10.27;;
8397;SDS011;4236;54.504;9.588;2023-08-01T12:26:22;10.20;;;9.70;;
8397;SDS011;4236;54.504;9.588;2023-08-01T12:28:51;9.87;;;9.37;;
8397;SDS011;4236;54.504;9.588;2023-08-01T12:31:19;11.00;;;10.40;;
8397;SDS011;4236;54.504;9.588;2023-08-01T12:33:46;11.40;;;10.70;;
8397;SDS011;4236;54.504;9.588;2023-08-01T12:36:15;12.47;;;11.67;;
8397;SDS011;4236;54.504;9.588;2023-08-01T12:38:43;11.17;;;10.70;;
8397;SDS011;4236;54.504;9.588;2023-08-01T12:41:11;10.43;;;9.87;;
8397;SDS011;4236;54.504;9.588;2023-08-01T12:43:38;10.30;;;9.53;;
8397;SDS011;4236;54.504;9.588;2023-08-01T12:46:07;9.07;;;8.53;;
8397;SDS011;4236;54.504;9.588;2023-08-01T12:48:35;10.03;;;9.20;;
8397;SDS011;4236;54.504;9.588;2023-08-01T12:51:02;9.70;;;9.00;;
8397;SDS011;4236;54.504;9.588;2023-08-01T12:53:30;9.13;;;8.60;;
8397;SDS011;4236;54.504;9.588;2023-08-01T12:55:57;10.30;;;9.30;;
8397;SDS011;4236;54.504;9.588;2023-08-01T12:58:25;8.97;;;8.30;;
8397;SDS011;4236;54.504;9.588;2023-08-01T13:00:53;8.80;;;8.20;;
8397;SDS011;4236;54.504;9.588;2023-08-01T13:03:22;9.17;;;8.27;;
8397;SDS011;4236;54.504;9.588;2023-08-01T13:05:50;9.53;;;8.80;;
8397;SDS011;4236;54.504;9.588;2023-08-01T13:08:19;10.00;;;9.40;;
8397;SDS011;4236;54.504;9.588;2023-08-01T13:10:46;9.13;;;8.83;;
8397;SDS011;4236;54.504;9.588;2023-08-01T13:13:16;9.57;;;9.10;;
8397;SDS011;4236;54.504;9.588;2023-08-01T13:15:43;9.40;;;9.00;;
8397;SDS011;4236;54.504;9.588;2023-08-01T13:18:11;8.90;;;8.50;;
8397;SDS011;4236;54.504;9.588;2023-08-01T13:20:40;8.87;;;8.40;;
8397;SDS011;4236;54.504;9.588;2023-08-01T13:23:08;9.60;;;9.10;;
8397;SDS011;4236;54.504;9.588;2023-08-01T13:25:35;9.73;;;8.97;;
8397;SDS011;4236;54.504;9.588;2023-08-01T13:28:03;9.40;;;8.70;;
8397;SDS011;4236;54.504;9.588;2023-08-01T13:30:31;10.27;;;9.67;;
8397;SDS011;4236;54.504;9.588;2023-08-01T13:32:58;9.63;;;8.60;;
8397;SDS011;4236;54.504;9.588;2023-08-01T13:35:26;10.17;;;9.70;;
8397;SDS011;4236;54.504;9.588;2023-08-01T13:37:55;9.33;;;8.83;;
8397;SDS011;4236;54.504;9.588;2023-08-01T13:40:24;9.10;;;8.60;;
8397;SDS011;4236;54.504;9.588;2023-08-01T13:42:51;8.73;;;8.43;;
8397;SDS011;4236;54.504;9.588;2023-08-01T13:45:19;8.33;;;7.90;;
8397;SDS011;4236;54.504;9.588;2023-08-01T13:47:47;8.27;;;7.77;;
8397;SDS011;4236;54.504;9.588;2023-08-01T13:50:15;8.40;;;8.00;;
8397;SDS011;4236;54.504;9.588;2023-08-01T13:52:42;9.93;;;9.30;;
8397;SDS011;4236;54.504;9.588;2023-08-01T13:55:12;9.17;;;8.50;;
8397;SDS011;4236;54.504;9.588;2023-08-01T13:57:43;8.67;;;8.23;;
8397;SDS011;4236;54.504;9.588;2023-08-01T14:00:11;8.50;;;7.83;;
8397;SDS011;4236;54.504;9.588;2023-08-01T14:02:39;8.73;;;8.33;;
8397;SDS011;4236;54.504;9.588;2023-08-01T14:05:09;8.73;;;8.33;;
8397;SDS011;4236;54.504;9.588;2023-08-01T14:07:36;9.70;;;9.10;;
8397;SDS011;4236;54.504;9.588;2023-08-01T14:10:09;9.13;;;8.70;;
8397;SDS011;4236;54.504;9.588;2023-08-01T14:12:39;10.17;;;9.23;;
8397;SDS011;4236;54.504;9.588;2023-08-01T14:15:07;9.80;;;9.30;;
8397;SDS011;4236;54.504;9.588;2023-08-01T14:17:35;10.30;;;9.80;;
8397;SDS011;4236;54.504;9.588;2023-08-01T14:20:02;10.97;;;10.57;;
8397;SDS011;4236;54.504;9.588;2023-08-01T14:22:31;11.40;;;10.60;;
8397;SDS011;4236;54.504;9.588;2023-08-01T14:24:58;10.50;;;10.10;;
8397;SDS011;4236;54.504;9.588;2023-08-01T14:27:26;10.83;;;10.10;;
8397;SDS011;4236;54.504;9.588;2023-08-01T14:29:55;10.10;;;9.60;;
8397;SDS011;4236;54.504;9.588;2023-08-01T14:32:23;10.97;;;10.50;;
8397;SDS011;4236;54.504;9.588;2023-08-01T14:34:50;10.70;;;10.20;;
8397;SDS011;4236;54.504;9.588;2023-08-01T14:37:18;9.50;;;9.17;;
8397;SDS011;4236;54.504;9.588;2023-08-01T14:39:48;8.63;;;8.13;;
8397;SDS011;4236;54.504;9.588;2023-08-01T14:42:15;9.47;;;8.97;;
8397;SDS011;4236;54.504;9.588;2023-08-01T14:44:43;9.30;;;8.80;;
8397;SDS011;4236;54.504;9.588;2023-08-01T14:47:11;8.97;;;8.60;;
8397;SDS011;4236;54.504;9.588;2023-08-01T14:49:43;8.90;;;8.40;;
8397;SDS011;4236;54.504;9.588;2023-08-01T14:52:10;9.97;;;9.33;;
8397;SDS011;4236;54.504;9.588;2023-08-01T14:54:38;7.93;;;7.50;;
8397;SDS011;4236;54.504;9.588;2023-08-01T14:57:07;7.50;;;7.30;;
8397;SDS011;4236;54.504;9.588;2023-08-01T14:59:34;8.87;;;8.33;;